sensor_id;sensor_type;location;lat;lon;timestamp;pressure;altitude;pressure_sealevel;temperature;humidity
3668;BME280;24099;47.102;15.440;2022-11-15T00:00:42;97433.81;;;8.21;100.00
3668;BME280;24099;47.102;15.440;2022-11-15T00:03:29;97431.53;;;8.26;100.00
3668;BME280;24099;47.102;15.440;2022-11-15T00:06:14;97439.22;;;8.11;100.00
3668;BME280;24099;47.102;15.440;2022-11-15T00:09:02;97440.50;;;8.07;100.00
3668;BME280;24099;47.102;15.440;2022-11-15T00:11:48;97441.16;;;8.09;100.00
3668;BME280;24099;47.102;15.440;2022-11-15T00:14:35;97438.22;;;8.12;100.00
3668;BME280;24099;47.102;15.440;2022-11-15T00:17:22;97444.09;;;8.06;100.00
3668;BME280;24099;47.102;15.440;2022-11-15T00:20:09;97447.06;;;8.11;100.00
3668;BME280;24099;47.102;15.440;2022-11-15T00:22:56;97437.88;;;8.07;100.00
3668;BME280;24099;47.102;15.440;2022-11-15T00:25:42;97437.84;;;7.91;100.00
3668;BME280;24099;47.102;15.440;2022-11-15T00:28:29;97436.69;;;8.02;100.00
3668;BME280;24099;47.102;15.440;2022-11-15T00:31:15;97445.75;;;8.07;100.00
3668;BME280;24099;47.102;15.440;2022-11-15T00:34:03;97447.69;;;8.05;100.00
3668;BME280;24099;47.102;15.440;2022-11-15T00:36:50;97438.03;;;8.06;100.00
3668;BME280;24099;47.102;15.440;2022-11-15T00:39:36;97443.13;;;7.99;100.00
3668;BME280;24099;47.102;15.440;2022-11-15T00:42:22;97442.09;;;8.00;100.00
3668;BME280;24099;47.102;15.440;2022-11-15T00:45:09;97445.06;;;7.97;100.00
3668;BME280;24099;47.102;15.440;2022-11-15T00:47:56;97431.47;;;8.02;100.00
3668;BME280;24099;47.102;15.440;2022-11-15T00:50:43;97426.88;;;8.04;100.00
3668;BME280;24099;47.102;15.440;2022-11-15T00:53:30;97427.69;;;7.96;100.00
3668;BME280;24099;47.102;15.440;2022-11-15T00:56:16;97425.09;;;7.96;100.00
3668;BME280;24099;47.102;15.440;2022-11-15T00:59:02;97426.06;;;7.95;100.00
3668;BME280;24099;47.102;15.440;2022-11-15T01:01:49;97419.81;;;7.88;100.00
3668;BME280;24099;47.102;15.440;2022-11-15T01:04:35;97415.38;;;7.88;100.00
3668;BME280;24099;47.102;15.440;2022-11-15T01:07:23;97418.50;;;7.92;100.00
3668;BME280;24099;47.102;15.440;2022-11-15T01:10:09;97410.97;;;7.89;100.00
3668;BME280;24099;47.102;15.440;2022-11-15T01:12:56;97400.28;;;7.74;100.00
3668;BME280;24099;47.102;15.440;2022-11-15T01:15:42;97390.63;;;7.83;100.00
3668;BME280;24099;47.102;15.440;2022-11-15T01:18:29;97392.72;;;7.71;100.00
3668;BME280;24099;47.102;15.440;2022-11-15T01:21:17;97391.44;;;7.75;100.00
3668;BME280;24099;47.102;15.440;2022-11-15T01:24:05;97389.50;;;7.85;100.00
3668;BME280;24099;47.102;15.440;2022-11-15T01:26:51;97391.78;;;7.88;100.00
3668;BME280;24099;47.102;15.440;2022-11-15T01:29:38;97388.00;;;7.83;100.00
3668;BME280;24099;47.102;15.440;2022-11-15T01:32:24;97392.56;;;7.81;100.00
3668;BME280;24099;47.102;15.440;2022-11-15T01:35:10;97399.34;;;7.91;100.00
3668;BME280;24099;47.102;15.440;2022-11-15T01:37:57;97396.88;;;7.90;100.00
3668;BME280;24099;47.102;15.440;2022-11-15T01:40:48;97385.78;;;7.96;100.00
3668;BME280;24099;47.102;15.440;2022-11-15T01:43:36;97386.75;;;7.95;100.00
3668;BME280;24099;47.102;15.440;2022-11-15T01:46:26;97391.00;;;7.96;100.00
3668;BME280;24099;47.102;15.440;2022-11-15T01:49:17;97391.00;;;7.96;100.00
3668;BME280;24099;47.102;15.440;2022-11-15T01:52:10;97391.84;;;7.97;100.00
3668;BME280;24099;47.102;15.440;2022-11-15T01:55:02;97387.41;;;7.97;100.00
3668;BME280;24099;47.102;15.440;2022-11-15T01:57:55;97394.59;;;7.95;100.00
3668;BME280;24099;47.102;15.440;2022-11-15T02:00:42;97392.31;;;7.92;100.00
3668;BME280;24099;47.102;15.440;2022-11-15T02:03:34;97386.09;;;7.93;100.00
3668;BME280;24099;47.102;15.440;2022-11-15T02:06:23;97387.53;;;7.79;100.00
3668;BME280;24099;47.102;15.440;2022-11-15T02:09:09;97375.53;;;7.69;100.00
3668;BME280;24099;47.102;15.440;2022-11-15T02:11:56;97374.53;;;7.70;100.00
3668;BME280;24099;47.102;15.440;2022-11-15T02:14:48;97374.53;;;7.70;100.00
3668;BME280;24099;47.102;15.440;2022-11-15T02:17:47;97368.00;;;7.74;100.00
3668;BME280;24099;47.102;15.440;2022-11-15T02:23:58;97363.94;;;7.79;100.00
3668;BME280;24099;47.102;15.440;2022-11-15T02:30:29;97356.69;;;7.65;100.00
3668;BME280;24099;47.102;15.440;2022-11-15T02:33:27;97358.97;;;7.68;100.00
3668;BME280;24099;47.102;15.440;2022-11-15T02:36:22;97361.44;;;7.70;100.00
3668;BME280;24099;47.102;15.440;2022-11-15T02:39:14;97359.03;;;7.76;100.00
3668;BME280;24099;47.102;15.440;2022-11-15T02:42:09;97358.19;;;7.76;100.00
3668;BME280;24099;47.102;15.440;2022-11-15T02:45:21;97352.28;;;7.74;100.00
3668;BME280;24099;47.102;15.440;2022-11-15T02:48:10;97362.44;;;7.69;100.00
3668;BME280;24099;47.102;15.440;2022-11-15T02:50:57;97350.19;;;7.77;100.00
3668;BME280;24099;47.102;15.440;2022-11-15T02:53:43;97348.22;;;7.79;100.00
3668;BME280;24099;47.102;15.440;2022-11-15T02:56:29;97347.22;;;7.80;100.00
3668;BME280;24099;47.102;15.440;2022-11-15T02:59:38;97337.53;;;7.65;100.00
3668;BME280;24099;47.102;15.440;2022-11-15T03:02:54;97341.34;;;7.78;100.00
3668;BME280;24099;47.102;15.440;2022-11-15T03:05:49;97337.91;;;7.86;100.00
3668;BME280;24099;47.102;15.440;2022-11-15T03:08:44;97341.50;;;7.85;100.00
3668;BME280;24099;47.102;15.440;2022-11-15T03:11:40;97332.97;;;7.83;100.00
3668;BME280;24099;47.102;15.440;2022-11-15T03:14:32;97333.28;;;7.80;100.00
3668;BME280;24099;47.102;15.440;2022-11-15T03:17:25;97327.69;;;7.67;100.00
3668;BME280;24099;47.102;15.440;2022-11-15T03:20:17;97317.22;;;7.67;100.00
3668;BME280;24099;47.102;15.440;2022-11-15T03:23:06;97319.50;;;7.61;100.00
3668;BME280;24099;47.102;15.440;2022-11-15T03:25:58;97323.63;;;7.72;100.00
3668;BME280;24099;47.102;15.440;2022-11-15T03:28:50;97312.34;;;7.80;100.00
3668;BME280;24099;47.102;15.440;2022-11-15T03:31:39;97315.97;;;7.79;100.00
3668;BME280;24099;47.102;15.440;2022-11-15T03:34:36;97308.72;;;7.65;100.00
3668;BME280;24099;47.102;15.440;2022-11-15T03:37:29;97308.38;;;7.68;100.00
3668;BME280;24099;47.102;15.440;2022-11-15T03:40:24;97310.06;;;7.85;100.00
3668;BME280;24099;47.102;15.440;2022-11-15T03:43:18;97309.09;;;7.78;100.00
3668;BME280;24099;47.102;15.440;2022-11-15T03:46:12;97311.34;;;7.73;100.00
3668;BME280;24099;47.102;15.440;2022-11-15T03:49:06;97302.16;;;7.69;100.00
3668;BME280;24099;47.102;15.440;2022-11-15T03:51:55;97295.13;;;7.69;100.00
3668;BME280;24099;47.102;15.440;2022-11-15T03:54:49;97293.81;;;7.57;100.00
3668;BME280;24099;47.102;15.440;2022-11-15T03:57:37;97292.00;;;7.66;100.00
3668;BME280;24099;47.102;15.440;2022-11-15T04:00:23;97293.63;;;7.50;100.00
3668;BME280;24099;47.102;15.440;2022-11-15T04:03:10;97292.84;;;7.66;100.00
3668;BME280;24099;47.102;15.440;2022-11-15T04:05:57;97299.22;;;7.64;100.00
3668;BME280;24099;47.102;15.440;2022-11-15T04:08:43;97290.03;;;7.59;100.00
3668;BME280;24099;47.102;15.440;2022-11-15T04:11:29;97297.72;;;7.61;100.00
3668;BME280;24099;47.102;15.440;2022-11-15T04:14:16;97298.38;;;7.63;100.00
3668;BME280;24099;47.102;15.440;2022-11-15T04:17:03;97302.50;;;7.66;100.00
3668;BME280;24099;47.102;15.440;2022-11-15T04:19:49;97300.06;;;7.72;100.00
3668;BME280;24099;47.102;15.440;2022-11-15T04:22:59;97292.69;;;7.84;100.00
3668;BME280;24099;47.102;15.440;2022-11-15T04:26:04;97292.19;;;7.72;100.00
3668;BME280;24099;47.102;15.440;2022-11-15T04:28:51;97274.66;;;7.65;100.00
3668;BME280;24099;47.102;15.440;2022-11-15T04:31:53;97281.53;;;7.66;100.00
3668;BME280;24099;47.102;15.440;2022-11-15T04:34:39;97273.84;;;7.64;100.00
3668;BME280;24099;47.102;15.440;2022-11-15T04:37:25;97270.91;;;7.67;100.00
3668;BME280;24099;47.102;15.440;2022-11-15T04:40:11;97264.69;;;7.68;100.00
3668;BME280;24099;47.102;15.440;2022-11-15T04:42:57;97258.28;;;7.63;100.00
3668;BME280;24099;47.102;15.440;2022-11-15T04:45:43;97260.06;;;7.62;100.00
3668;BME280;24099;47.102;15.440;2022-11-15T04:48:31;97250.25;;;7.64;100.00
3668;BME280;24099;47.102;15.440;2022-11-15T04:51:18;97250.09;;;7.66;100.00
3668;BME280;24099;47.102;15.440;2022-11-15T04:54:05;97245.84;;;7.56;100.00
3668;BME280;24099;47.102;15.440;2022-11-15T04:56:51;97249.44;;;7.64;100.00
3668;BME280;24099;47.102;15.440;2022-11-15T04:59:37;97247.31;;;7.59;100.00
3668;BME280;24099;47.102;15.440;2022-11-15T05:02:24;97246.50;;;7.58;100.00
3668;BME280;24099;47.102;15.440;2022-11-15T05:05:31;97236.50;;;7.62;100.00
3668;BME280;24099;47.102;15.440;2022-11-15T05:08:16;97245.19;;;7.63;100.00
3668;BME280;24099;47.102;15.440;2022-11-15T05:11:02;97239.63;;;7.66;100.00
3668;BME280;24099;47.102;15.440;2022-11-15T05:13:48;97230.28;;;7.63;100.00
3668;BME280;24099;47.102;15.440;2022-11-15T05:16:34;97226.84;;;7.63;100.00
3668;BME280;24099;47.102;15.440;2022-11-15T05:19:21;97234.88;;;7.61;100.00
3668;BME280;24099;47.102;15.440;2022-11-15T05:22:09;97231.75;;;7.66;100.00
3668;BME280;24099;47.102;15.440;2022-11-15T05:24:56;97220.47;;;7.65;100.00
3668;BME280;24099;47.102;15.440;2022-11-15T05:27:42;97224.88;;;7.65;100.00
3668;BME280;24099;47.102;15.440;2022-11-15T05:30:29;97220.16;;;7.76;100.00
3668;BME280;24099;47.102;15.440;2022-11-15T05:33:15;97217.53;;;7.68;100.00
3668;BME280;24099;47.102;15.440;2022-11-15T05:36:04;97207.84;;;7.60;100.00
3668;BME280;24099;47.102;15.440;2022-11-15T05:38:52;97214.25;;;7.66;100.00
3668;BME280;24099;47.102;15.440;2022-11-15T05:41:41;97215.06;;;7.67;100.00
3668;BME280;24099;47.102;15.440;2022-11-15T05:44:31;97214.09;;;7.68;100.00
3668;BME280;24099;47.102;15.440;2022-11-15T05:47:22;97214.41;;;7.65;100.00
3668;BME280;24099;47.102;15.440;2022-11-15T05:50:11;97218.00;;;7.64;100.00
3668;BME280;24099;47.102;15.440;2022-11-15T05:52:58;97212.78;;;7.64;100.00
3668;BME280;24099;47.102;15.440;2022-11-15T05:55:47;97220.63;;;7.55;100.00
3668;BME280;24099;47.102;15.440;2022-11-15T05:58:33;97219.16;;;7.61;100.00
3668;BME280;24099;47.102;15.440;2022-11-15T06:01:19;97225.19;;;7.61;100.00
3668;BME280;24099;47.102;15.440;2022-11-15T06:04:05;97225.88;;;7.64;100.00
3668;BME280;24099;47.102;15.440;2022-11-15T06:06:52;97225.19;;;7.61;100.00
3668;BME280;24099;47.102;15.440;2022-11-15T06:09:38;97228.34;;;7.57;100.00
3668;BME280;24099;47.102;15.440;2022-11-15T06:12:26;97235.84;;;7.60;100.00
3668;BME280;24099;47.102;15.440;2022-11-15T06:15:12;97233.41;;;7.58;100.00
3668;BME280;24099;47.102;15.440;2022-11-15T06:17:58;97243.06;;;7.58;100.00
3668;BME280;24099;47.102;15.440;2022-11-15T06:20:45;97246.50;;;7.58;100.00
3668;BME280;24099;47.102;15.440;2022-11-15T06:23:33;97249.59;;;7.54;100.00
3668;BME280;24099;47.102;15.440;2022-11-15T06:26:19;97250.94;;;7.58;100.00
3668;BME280;24099;47.102;15.440;2022-11-15T06:29:06;97246.97;;;7.62;100.00
3668;BME280;24099;47.102;15.440;2022-11-15T06:31:52;97246.81;;;7.64;100.00
3668;BME280;24099;47.102;15.440;2022-11-15T06:34:39;97258.28;;;7.63;100.00
3668;BME280;24099;47.102;15.440;2022-11-15T06:37:25;97246.81;;;7.64;100.00
3668;BME280;24099;47.102;15.440;2022-11-15T06:40:12;97241.59;;;7.64;100.00
3668;BME280;24099;47.102;15.440;2022-11-15T06:42:58;97246.19;;;7.70;100.00
3668;BME280;24099;47.102;15.440;2022-11-15T06:45:46;97251.91;;;7.65;100.00
3668;BME280;24099;47.102;15.440;2022-11-15T06:48:33;97255.84;;;7.69;100.00
3668;BME280;24099;47.102;15.440;2022-11-15T06:51:20;97252.09;;;7.72;100.00
3668;BME280;24099;47.102;15.440;2022-11-15T06:54:06;97258.31;;;7.71;100.00
3668;BME280;24099;47.102;15.440;2022-11-15T06:56:53;97251.75;;;7.75;100.00
3668;BME280;24099;47.102;15.440;2022-11-15T06:59:39;97258.94;;;7.65;100.00
3668;BME280;24099;47.102;15.440;2022-11-15T07:02:27;97255.81;;;7.61;100.00
3668;BME280;24099;47.102;15.440;2022-11-15T07:05:15;97253.34;;;7.51;100.00
3668;BME280;24099;47.102;15.440;2022-11-15T07:08:01;97254.84;;;7.62;100.00
3668;BME280;24099;47.102;15.440;2022-11-15T07:10:48;97248.78;;;7.61;100.00
3668;BME280;24099;47.102;15.440;2022-11-15T07:13:35;97256.63;;;7.61;100.00
3668;BME280;24099;47.102;15.440;2022-11-15T07:16:22;97252.88;;;7.64;100.00
3668;BME280;24099;47.102;15.440;2022-11-15T07:19:10;97252.72;;;7.66;100.00
3668;BME280;24099;47.102;15.440;2022-11-15T07:21:58;97245.81;;;7.48;100.00
3668;BME280;24099;47.102;15.440;2022-11-15T07:24:44;97256.47;;;7.63;100.00
3668;BME280;24099;47.102;15.440;2022-11-15T07:27:31;97256.31;;;7.65;100.00
3668;BME280;24099;47.102;15.440;2022-11-15T07:30:18;97255.81;;;7.61;100.00
3668;BME280;24099;47.102;15.440;2022-11-15T07:33:05;97256.16;;;7.58;100.00
3668;BME280;24099;47.102;15.440;2022-11-15T07:35:53;97254.34;;;7.67;100.00
3668;BME280;24099;47.102;15.440;2022-11-15T07:38:39;97247.78;;;7.63;100.00
3668;BME280;24099;47.102;15.440;2022-11-15T07:41:26;97251.56;;;7.52;100.00
3668;BME280;24099;47.102;15.440;2022-11-15T07:44:12;97248.78;;;7.53;100.00
3668;BME280;24099;47.102;15.440;2022-11-15T07:46:59;97237.25;;;7.30;100.00
3668;BME280;24099;47.102;15.440;2022-11-15T07:49:45;97236.47;;;7.38;100.00
3668;BME280;24099;47.102;15.440;2022-11-15T07:52:33;97234.19;;;7.35;100.00
3668;BME280;24099;47.102;15.440;2022-11-15T07:55:19;97228.63;;;7.46;100.00
3668;BME280;24099;47.102;15.440;2022-11-15T07:58:07;97220.13;;;7.52;100.00
3668;BME280;24099;47.102;15.440;2022-11-15T08:00:54;97218.31;;;7.60;100.00
3668;BME280;24099;47.102;15.440;2022-11-15T08:03:41;97230.16;;;7.73;100.00
3668;BME280;24099;47.102;15.440;2022-11-15T08:06:27;97236.03;;;7.67;100.00
3668;BME280;24099;47.102;15.440;2022-11-15T08:09:14;97234.41;;;7.74;100.00
3668;BME280;24099;47.102;15.440;2022-11-15T08:12:01;97239.78;;;7.56;100.00
3668;BME280;24099;47.102;15.440;2022-11-15T08:14:47;97223.91;;;7.57;100.00
3668;BME280;24099;47.102;15.440;2022-11-15T08:17:34;97225.53;;;7.67;100.00
3668;BME280;24099;47.102;15.440;2022-11-15T08:20:20;97222.13;;;7.82;100.00
3668;BME280;24099;47.102;15.440;2022-11-15T08:23:07;97217.22;;;7.79;100.00
3668;BME280;24099;47.102;15.440;2022-11-15T08:26:00;97222.63;;;7.78;100.00
3668;BME280;24099;47.102;15.440;2022-11-15T08:28:47;97216.38;;;7.71;100.00
3668;BME280;24099;47.102;15.440;2022-11-15T08:31:34;97214.09;;;7.84;100.00
3668;BME280;24099;47.102;15.440;2022-11-15T08:34:21;97211.97;;;7.87;100.00
3668;BME280;24099;47.102;15.440;2022-11-15T08:37:07;97212.13;;;7.94;100.00
3668;BME280;24099;47.102;15.440;2022-11-15T08:39:53;97210.31;;;8.03;100.00
3668;BME280;24099;47.102;15.440;2022-11-15T08:42:41;97202.94;;;8.06;100.00
3668;BME280;24099;47.102;15.440;2022-11-15T08:45:27;97204.28;;;8.18;100.00
3668;BME280;24099;47.102;15.440;2022-11-15T08:48:14;97190.66;;;8.07;100.00
3668;BME280;24099;47.102;15.440;2022-11-15T08:51:00;97184.94;;;8.11;100.00
3668;BME280;24099;47.102;15.440;2022-11-15T08:53:47;97183.75;;;8.30;100.00
3668;BME280;24099;47.102;15.440;2022-11-15T08:56:33;97179.81;;;8.26;100.00
3668;BME280;24099;47.102;15.440;2022-11-15T08:59:20;97182.44;;;8.42;100.00
3668;BME280;24099;47.102;15.440;2022-11-15T09:02:10;97176.72;;;8.39;100.00
3668;BME280;24099;47.102;15.440;2022-11-15T09:04:57;97170.78;;;8.45;100.00
3668;BME280;24099;47.102;15.440;2022-11-15T09:07:43;97182.75;;;8.55;100.00
3668;BME280;24099;47.102;15.440;2022-11-15T09:10:29;97177.78;;;8.60;100.00
3668;BME280;24099;47.102;15.440;2022-11-15T09:13:16;97175.03;;;8.54;100.00
3668;BME280;24099;47.102;15.440;2022-11-15T09:16:04;97169.91;;;8.60;100.00
3668;BME280;24099;47.102;15.440;2022-11-15T09:18:51;97161.03;;;8.70;100.00
3668;BME280;24099;47.102;15.440;2022-11-15T09:21:37;97153.34;;;8.68;100.00
3668;BME280;24099;47.102;15.440;2022-11-15T09:24:23;97152.41;;;8.53;100.00
3668;BME280;24099;47.102;15.440;2022-11-15T09:27:09;97151.69;;;8.67;100.00
3668;BME280;24099;47.102;15.440;2022-11-15T09:29:56;97142.81;;;8.76;100.00
3668;BME280;24099;47.102;15.440;2022-11-15T09:32:43;97137.56;;;8.76;100.00
3668;BME280;24099;47.102;15.440;2022-11-15T09:35:29;97138.00;;;8.80;100.00
3668;BME280;24099;47.102;15.440;2022-11-15T09:38:17;97135.19;;;8.89;100.00
3668;BME280;24099;47.102;15.440;2022-11-15T09:44:19;97121.94;;;8.83;100.00
3668;BME280;24099;47.102;15.440;2022-11-15T09:47:24;97114.38;;;8.88;100.00
3668;BME280;24099;47.102;15.440;2022-11-15T09:50:20;97114.72;;;8.85;100.00
3668;BME280;24099;47.102;15.440;2022-11-15T09:52:55;97100.09;;;8.90;100.00
3668;BME280;24099;47.102;15.440;2022-11-15T09:55:32;97098.41;;;8.97;100.00
3668;BME280;24099;47.102;15.440;2022-11-15T09:58:09;97095.41;;;9.01;100.00
3668;BME280;24099;47.102;15.440;2022-11-15T10:00:42;97093.00;;;8.99;100.00
3668;BME280;24099;47.102;15.440;2022-11-15T10:03:14;97090.06;;;8.94;100.00
3668;BME280;24099;47.102;15.440;2022-11-15T10:05:46;97084.00;;;8.93;100.00
3668;BME280;24099;47.102;15.440;2022-11-15T10:08:28;97082.75;;;9.04;100.00
3668;BME280;24099;47.102;15.440;2022-11-15T10:11:01;97080.13;;;9.04;100.00
3668;BME280;24099;47.102;15.440;2022-11-15T10:13:33;97079.75;;;9.15;100.00
3668;BME280;24099;47.102;15.440;2022-11-15T10:16:08;97069.00;;;9.25;100.00
3668;BME280;24099;47.102;15.440;2022-11-15T10:18:46;97056.50;;;9.27;100.00
3668;BME280;24099;47.102;15.440;2022-11-15T10:21:21;97052.50;;;9.39;100.00
3668;BME280;24099;47.102;15.440;2022-11-15T10:23:51;97042.22;;;9.29;100.00
3668;BME280;24099;47.102;15.440;2022-11-15T10:26:20;97043.91;;;9.22;100.00
3668;BME280;24099;47.102;15.440;2022-11-15T10:28:48;97038.13;;;9.27;100.00
3668;BME280;24099;47.102;15.440;2022-11-15T10:31:23;97034.28;;;9.38;100.00
3668;BME280;24099;47.102;15.440;2022-11-15T10:33:53;97036.94;;;9.52;100.00
3668;BME280;24099;47.102;15.440;2022-11-15T10:36:25;97031.50;;;9.68;100.00
3668;BME280;24099;47.102;15.440;2022-11-15T10:38:57;97021.28;;;9.74;100.00
3668;BME280;24099;47.102;15.440;2022-11-15T10:41:35;97023.81;;;9.67;100.00
3668;BME280;24099;47.102;15.440;2022-11-15T10:44:11;97015.91;;;9.38;100.00
3668;BME280;24099;47.102;15.440;2022-11-15T10:46:40;97016.78;;;9.30;100.00
3668;BME280;24099;47.102;15.440;2022-11-15T10:49:14;97008.84;;;9.53;100.00
3668;BME280;24099;47.102;15.440;2022-11-15T10:51:47;97002.72;;;9.00;100.00
3668;BME280;24099;47.102;15.440;2022-11-15T10:54:21;97009.94;;;9.21;100.00
3668;BME280;24099;47.102;15.440;2022-11-15T10:56:52;97002.88;;;9.21;100.00
3668;BME280;24099;47.102;15.440;2022-11-15T10:59:25;96991.25;;;9.39;100.00
3668;BME280;24099;47.102;15.440;2022-11-15T11:01:54;96992.56;;;9.20;100.00
3668;BME280;24099;47.102;15.440;2022-11-15T11:04:22;96987.88;;;9.30;100.00
3668;BME280;24099;47.102;15.440;2022-11-15T11:06:53;96978.66;;;9.34;100.00
3668;BME280;24099;47.102;15.440;2022-11-15T11:09:33;96982.63;;;9.30;100.00
3668;BME280;24099;47.102;15.440;2022-11-15T11:12:03;96982.97;;;9.27;100.00
3668;BME280;24099;47.102;15.440;2022-11-15T11:14:33;96981.81;;;9.29;100.00
3668;BME280;24099;47.102;15.440;2022-11-15T11:17:06;96973.06;;;9.37;100.00
3668;BME280;24099;47.102;15.440;2022-11-15T11:20:02;96964.31;;;9.22;100.00
3668;BME280;24099;47.102;15.440;2022-11-15T11:22:41;96956.75;;;9.56;100.00
3668;BME280;24099;47.102;15.440;2022-11-15T11:25:22;96956.28;;;9.38;100.00
3668;BME280;24099;47.102;15.440;2022-11-15T11:28:01;96943.00;;;9.54;100.00
3668;BME280;24099;47.102;15.440;2022-11-15T11:30:39;96943.59;;;9.42;100.00
3668;BME280;24099;47.102;15.440;2022-11-15T11:33:16;96931.09;;;9.44;100.00
3668;BME280;24099;47.102;15.440;2022-11-15T11:35:55;96924.22;;;9.43;100.00
3668;BME280;24099;47.102;15.440;2022-11-15T11:38:55;96933.25;;;9.25;100.00
3668;BME280;24099;47.102;15.440;2022-11-15T11:41:42;96920.47;;;9.08;100.00
3668;BME280;24099;47.102;15.440;2022-11-15T11:44:22;96915.44;;;9.36;100.00
3668;BME280;24099;47.102;15.440;2022-11-15T11:46:56;96908.44;;;9.43;100.00
3668;BME280;24099;47.102;15.440;2022-11-15T11:49:30;96899.88;;;9.34;100.00
3668;BME280;24099;47.102;15.440;2022-11-15T11:52:04;96899.50;;;9.37;100.00
3668;BME280;24099;47.102;15.440;2022-11-15T11:54:39;96897.41;;;9.32;100.00
3668;BME280;24099;47.102;15.440;2022-11-15T11:57:16;96898.75;;;9.43;100.00
3668;BME280;24099;47.102;15.440;2022-11-15T11:59:48;96890.13;;;9.05;100.00
3668;BME280;24099;47.102;15.440;2022-11-15T12:02:28;96883.00;;;9.14;100.00
3668;BME280;24099;47.102;15.440;2022-11-15T12:05:04;96872.59;;;9.06;100.00
3668;BME280;24099;47.102;15.440;2022-11-15T12:07:36;96876.31;;;9.26;100.00
3668;BME280;24099;47.102;15.440;2022-11-15T12:10:17;96861.44;;;9.04;100.00
3668;BME280;24099;47.102;15.440;2022-11-15T12:12:54;96865.09;;;9.32;100.00
3668;BME280;24099;47.102;15.440;2022-11-15T12:15:25;96857.91;;;9.41;100.00
3668;BME280;24099;47.102;15.440;2022-11-15T12:17:56;96860.28;;;9.36;100.00
3668;BME280;24099;47.102;15.440;2022-11-15T12:20:26;96850.16;;;9.18;100.00
3668;BME280;24099;47.102;15.440;2022-11-15T12:22:58;96851.84;;;9.55;100.00
3668;BME280;24099;47.102;15.440;2022-11-15T12:25:32;96849.31;;;9.32;100.00
3668;BME280;24099;47.102;15.440;2022-11-15T12:28:08;96848.25;;;9.12;100.00
3668;BME280;24099;47.102;15.440;2022-11-15T12:30:45;96843.69;;;9.20;100.00
3668;BME280;24099;47.102;15.440;2022-11-15T12:33:34;96845.72;;;9.18;100.00
3668;BME280;24099;47.102;15.440;2022-11-15T12:36:04;96848.69;;;9.30;100.00
3668;BME280;24099;47.102;15.440;2022-11-15T12:38:53;96844.53;;;9.06;100.00
3668;BME280;24099;47.102;15.440;2022-11-15T12:41:24;96842.34;;;9.24;100.00
3668;BME280;24099;47.102;15.440;2022-11-15T12:43:53;96842.09;;;9.34;100.00
3668;BME280;24099;47.102;15.440;2022-11-15T12:46:33;96834.66;;;9.38;100.00
3668;BME280;24099;47.102;15.440;2022-11-15T12:49:45;96829.75;;;9.20;100.00
3668;BME280;24099;47.102;15.440;2022-11-15T12:52:14;96835.00;;;9.20;100.00
3668;BME280;24099;47.102;15.440;2022-11-15T12:55:08;96829.75;;;9.49;100.00
3668;BME280;24099;47.102;15.440;2022-11-15T12:57:52;96837.91;;;9.25;100.00
3668;BME280;24099;47.102;15.440;2022-11-15T13:00:44;96824.16;;;9.23;100.00
3668;BME280;24099;47.102;15.440;2022-11-15T13:03:25;96825.25;;;9.14;100.00
3668;BME280;24099;47.102;15.440;2022-11-15T13:06:05;96830.56;;;9.06;100.00
3668;BME280;24099;47.102;15.440;2022-11-15T13:08:49;96829.22;;;9.10;100.00
3668;BME280;24099;47.102;15.440;2022-11-15T13:11:49;96831.47;;;8.83;100.00
3668;BME280;24099;47.102;15.440;2022-11-15T13:14:44;96820.00;;;8.99;100.00
3668;BME280;24099;47.102;15.440;2022-11-15T13:17:34;96821.81;;;8.98;100.00
3668;BME280;24099;47.102;15.440;2022-11-15T13:20:18;96828.31;;;9.03;100.00
3668;BME280;24099;47.102;15.440;2022-11-15T13:22:48;96825.78;;;9.09;100.00
3668;BME280;24099;47.102;15.440;2022-11-15T13:25:51;96814.28;;;8.95;100.00
3668;BME280;24099;47.102;15.440;2022-11-15T13:28:27;96816.28;;;9.08;100.00
3668;BME280;24099;47.102;15.440;2022-11-15T13:30:59;96810.50;;;8.98;100.00
3668;BME280;24099;47.102;15.440;2022-11-15T13:33:31;96814.94;;;8.97;100.00
3668;BME280;24099;47.102;15.440;2022-11-15T13:36:02;96811.75;;;9.02;100.00
3668;BME280;24099;47.102;15.440;2022-11-15T13:38:32;96810.56;;;9.05;100.00
3668;BME280;24099;47.102;15.440;2022-11-15T13:41:10;96810.22;;;9.08;100.00
3668;BME280;24099;47.102;15.440;2022-11-15T13:43:38;96807.25;;;8.96;100.00
3668;BME280;24099;47.102;15.440;2022-11-15T13:46:19;96800.25;;;9.03;100.00
3668;BME280;24099;47.102;15.440;2022-11-15T13:48:52;96799.44;;;9.03;100.00
3668;BME280;24099;47.102;15.440;2022-11-15T13:51:28;96797.34;;;8.83;100.00
3668;BME280;24099;47.102;15.440;2022-11-15T13:53:59;96789.94;;;8.72;100.00
3668;BME280;24099;47.102;15.440;2022-11-15T13:56:29;96791.28;;;8.83;100.00
3668;BME280;24099;47.102;15.440;2022-11-15T13:58:58;96792.44;;;8.80;100.00
3668;BME280;24099;47.102;15.440;2022-11-15T14:01:30;96790.13;;;8.85;100.00
3668;BME280;24099;47.102;15.440;2022-11-15T14:04:00;96785.78;;;8.92;100.00
3668;BME280;24099;47.102;15.440;2022-11-15T14:06:29;96791.50;;;8.96;100.00
3668;BME280;24099;47.102;15.440;2022-11-15T14:09:01;96789.03;;;8.94;100.00
3668;BME280;24099;47.102;15.440;2022-11-15T14:11:30;96789.03;;;8.94;100.00
3668;BME280;24099;47.102;15.440;2022-11-15T14:14:13;96787.06;;;8.96;100.00
3668;BME280;24099;47.102;15.440;2022-11-15T14:16:44;96792.09;;;8.83;100.00
3668;BME280;24099;47.102;15.440;2022-11-15T14:19:33;96784.50;;;8.88;100.00
3668;BME280;24099;47.102;15.440;2022-11-15T14:22:25;96784.41;;;8.82;100.00
3668;BME280;24099;47.102;15.440;2022-11-15T14:25:14;96789.56;;;8.75;100.00
3668;BME280;24099;47.102;15.440;2022-11-15T14:27:43;96780.59;;;8.84;100.00
3668;BME280;24099;47.102;15.440;2022-11-15T14:30:16;96777.91;;;8.78;100.00
3668;BME280;24099;47.102;15.440;2022-11-15T14:32:47;96772.09;;;8.82;100.00
3668;BME280;24099;47.102;15.440;2022-11-15T14:35:17;96772.09;;;8.82;100.00
3668;BME280;24099;47.102;15.440;2022-11-15T14:37:47;96766.03;;;8.82;100.00
3668;BME280;24099;47.102;15.440;2022-11-15T14:40:18;96758.16;;;8.82;100.00